Time;durP1;ratioP1;P1;durP2;ratioP2;P2;SDS_P1;SDS_P2;PMS_P1;PMS_P2;Temp;Humidity;BMP_temperature;BMP_pressure;BME280_temperature;BME280_humidity;BME280_pressure;Samples;Min_cycle;Max_cycle;Signal;HPM_P1;HPM_P2
2022/01/02 00:01:13;;;;;;;19.40;14.03;;;;;;;-143.84;94.50;43864.88;5031115;28;20439;-76
2022/01/02 00:03:42;;;;;;;19.00;15.10;;;;;;;-143.84;94.43;43836.34;5030648;28;20474;-77
2022/01/02 00:06:10;;;;;;;21.13;15.00;;;;;;;-143.84;94.15;43826.81;5031110;28;20481;-76
2022/01/02 00:08:43;;;;;;;23.93;14.73;;;;;;;-143.84;94.18;43819.19;5030892;28;20449;-76
2022/01/02 00:11:12;;;;;;;22.30;15.53;;;;;;;-143.84;94.38;43836.34;5030432;28;20443;-76
2022/01/02 00:13:47;;;;;;;24.83;14.37;;;;;;;-143.84;94.26;43813.50;5030299;28;20443;-76
2022/01/02 00:16:17;;;;;;;16.80;13.53;;;;;;;-143.84;94.28;43830.63;5030351;28;20457;-76
2022/01/02 00:18:51;;;;;;;24.23;15.07;;;;;;;-143.84;94.52;43834.44;5030367;28;20948;-76
2022/01/02 00:21:21;;;;;;;17.27;14.17;;;;;;;-143.84;94.39;43790.66;5030412;28;20441;-76
2022/01/02 00:23:58;;;;;;;22.17;15.83;;;;;;;-143.84;94.39;43823.00;5030061;28;20482;-76
2022/01/02 00:26:35;;;;;;;20.63;15.87;;;;;;;-143.84;94.33;43811.59;5030161;28;21030;-76
2022/01/02 00:29:06;;;;;;;19.40;15.20;;;;;;;-143.84;94.17;43811.59;5030166;28;20474;-76
2022/01/02 00:31:34;;;;;;;24.03;15.33;;;;;;;-143.84;94.26;43805.88;5030268;28;20443;-76
2022/01/02 00:34:03;;;;;;;21.00;15.30;;;;;;;-143.84;94.35;43786.84;5030249;28;20505;-76
2022/01/02 00:36:30;;;;;;;18.30;14.63;;;;;;;-143.84;94.28;43815.41;5030451;28;21022;-76
2022/01/02 00:38:57;;;;;;;20.47;14.40;;;;;;;-143.84;94.37;43824.91;5029948;28;20485;-76
2022/01/02 00:41:28;;;;;;;19.87;14.60;;;;;;;-143.84;94.26;43798.25;5029987;28;20453;-76
2022/01/02 00:44:03;;;;;;;20.13;13.60;;;;;;;-143.84;94.18;43815.41;5029992;28;20483;-76
2022/01/02 00:46:33;;;;;;;17.20;12.90;;;;;;;-143.84;94.37;43821.09;5013324;28;20440;-76
2022/01/02 00:49:05;;;;;;;18.90;13.77;;;;;;;-143.84;94.11;43830.63;5029847;28;20531;-76
2022/01/02 00:51:46;;;;;;;17.50;12.97;;;;;;;-143.84;93.54;43819.19;5029878;28;20446;-76
2022/01/02 00:54:17;;;;;;;17.37;14.20;;;;;;;-143.84;92.70;43862.97;5029568;28;20852;-76
2022/01/02 00:56:46;;;;;;;22.27;14.83;;;;;;;-143.84;92.72;43895.34;5030082;28;20517;-76
2022/01/02 00:59:24;;;;;;;22.17;15.77;;;;;;;-143.84;92.46;43904.84;5030127;28;20447;-78
2022/01/02 01:02:02;;;;;;;17.33;12.97;;;;;;;-143.84;92.53;43933.41;5029624;28;20439;-77
2022/01/02 01:04:31;;;;;;;18.57;14.30;;;;;;;-143.84;92.10;43977.19;5029915;28;20478;-77
2022/01/02 01:07:03;;;;;;;19.60;14.43;;;;;;;-143.84;91.40;44081.88;5030067;28;20896;-77
2022/01/02 01:09:31;;;;;;;17.37;13.37;;;;;;;-143.84;91.30;44074.28;5030295;28;20431;-76
2022/01/02 01:11:59;;;;;;;17.57;14.23;;;;;;;-143.84;91.54;44089.50;5029674;28;20869;-76
2022/01/02 01:14:27;;;;;;;22.03;15.00;;;;;;;-143.84;91.73;44070.47;5029074;28;20537;-76
2022/01/02 01:17:00;;;;;;;21.80;15.73;;;;;;;-143.84;91.98;44001.94;5028923;28;20442;-76
2022/01/02 01:19:27;;;;;;;22.50;14.60;;;;;;;-143.84;92.47;43942.94;5029067;28;20522;-77
2022/01/02 01:21:54;;;;;;;19.53;12.23;;;;;;;-143.84;92.60;43950.53;5030928;28;20435;-76
2022/01/02 01:24:22;;;;;;;17.00;13.20;;;;;;;-143.84;92.86;43893.44;5031179;28;20483;-77
2022/01/02 01:26:53;;;;;;;17.80;13.00;;;;;;;-143.84;93.15;43862.97;5030669;28;20444;-77
2022/01/02 01:29:20;;;;;;;20.47;14.60;;;;;;;-143.84;93.36;43876.31;5030786;28;20435;-77
2022/01/02 01:31:47;;;;;;;20.30;13.23;;;;;;;-143.84;93.48;43834.44;5030601;28;20439;-77
2022/01/02 01:34:16;;;;;;;16.43;12.60;;;;;;;-143.84;93.35;43840.13;5030034;28;20502;-76
2022/01/02 01:36:43;;;;;;;15.30;11.77;;;;;;;-143.84;93.13;43838.25;5030234;28;20447;-76
2022/01/02 01:39:10;;;;;;;17.70;11.57;;;;;;;-143.84;93.43;43891.53;5030523;28;20443;-76
2022/01/02 01:41:38;;;;;;;13.97;12.10;;;;;;;-143.84;92.97;43878.22;5030717;28;20500;-77
2022/01/02 01:44:25;;;;;;;18.90;13.30;;;;;;;-143.84;93.03;43897.25;5030493;28;20493;-76
2022/01/02 01:46:55;;;;;;;15.60;12.70;;;;;;;-143.84;93.11;43887.72;5030353;28;20825;-77
2022/01/02 01:49:27;;;;;;;17.33;13.10;;;;;;;-143.84;93.10;43891.53;5029735;28;20438;-77
2022/01/02 01:51:55;;;;;;;17.30;13.40;;;;;;;-143.84;92.94;43918.19;5029798;28;20474;-77
2022/01/02 01:54:23;;;;;;;16.43;12.87;;;;;;;-143.84;92.94;43899.16;5030181;28;20439;-77
2022/01/02 01:56:52;;;;;;;19.10;14.47;;;;;;;-143.84;92.86;43901.06;5029590;28;20434;-77
2022/01/02 01:59:19;;;;;;;17.50;12.70;;;;;;;-143.84;93.00;43920.09;5029825;28;20492;-77
2022/01/02 02:01:46;;;;;;;15.00;12.10;;;;;;;-143.84;93.20;43887.72;5029612;28;20594;-78
2022/01/02 02:04:13;;;;;;;22.73;13.70;;;;;;;-143.84;93.13;43849.66;5029478;28;20470;-78
2022/01/02 02:06:42;;;;;;;16.93;13.60;;;;;;;-143.84;92.97;43914.38;5029751;28;20454;-78
2022/01/02 02:09:10;;;;;;;15.40;12.30;;;;;;;-143.84;92.74;43902.97;5033542;28;20532;-78
2022/01/02 02:11:39;;;;;;;16.37;13.10;;;;;;;-143.84;92.77;43910.56;5032585;28;21123;-76
2022/01/02 02:14:07;;;;;;;18.13;13.10;;;;;;;-143.84;92.79;43965.78;5031681;28;21029;-76
2022/01/02 02:16:36;;;;;;;23.93;13.20;;;;;;;-143.84;92.53;43961.97;5032228;28;20445;-76
2022/01/02 02:19:03;;;;;;;20.27;14.93;;;;;;;-143.84;92.68;43952.44;5032304;28;20504;-76
2022/01/02 02:21:33;;;;;;;16.83;14.03;;;;;;;-143.84;92.91;43937.22;5031762;28;20445;-76
2022/01/02 02:24:01;;;;;;;22.20;13.50;;;;;;;-143.84;92.71;43920.09;5031918;28;20493;-76
2022/01/02 02:26:28;;;;;;;21.83;14.77;;;;;;;-143.84;92.86;43908.66;5031648;28;20443;-76
2022/01/02 02:28:56;;;;;;;18.40;13.67;;;;;;;-143.84;92.95;43914.38;5014198;28;20496;-76
2022/01/02 02:31:23;;;;;;;20.27;13.57;;;;;;;-143.84;93.00;43904.84;5031757;28;20947;-76
2022/01/02 02:33:50;;;;;;;19.13;15.40;;;;;;;-143.84;93.14;43866.78;5031485;28;20863;-76
2022/01/02 02:36:18;;;;;;;24.53;15.50;;;;;;;-143.84;93.28;43893.44;5031928;28;20445;-77
2022/01/02 02:38:46;;;;;;;17.40;14.70;;;;;;;-143.84;93.28;43882.00;5031709;28;20434;-77
2022/01/02 02:41:13;;;;;;;18.97;14.20;;;;;;;-143.84;93.41;43870.59;5031544;28;21324;-77
2022/01/02 02:43:48;;;;;;;21.13;15.37;;;;;;;-143.84;93.94;43853.47;5032423;28;20482;-76
2022/01/02 02:49:02;;;;;;;19.50;15.57;;;;;;;-143.84;94.08;43811.59;5031991;28;20977;-77
2022/01/02 02:51:37;;;;;;;24.33;15.27;;;;;;;-143.84;94.24;43826.81;5032028;28;20448;-77
2022/01/02 02:54:07;;;;;;;17.47;13.50;;;;;;;-143.84;94.74;43834.44;5031977;28;20457;-77
2022/01/02 02:56:53;;;;;;;22.40;14.97;;;;;;;-143.84;94.94;43851.56;5031954;28;20462;-77
2022/01/02 02:59:21;;;;;;;20.97;14.20;;;;;;;-143.84;95.13;43836.34;5031973;28;20490;-77
2022/01/02 03:01:48;;;;;;;25.67;14.53;;;;;;;-143.84;95.30;43864.88;5032239;28;20504;-77
2022/01/02 03:04:15;;;;;;;18.90;14.13;;;;;;;-143.84;95.22;43821.09;5032008;28;20475;-77
2022/01/02 03:06:42;;;;;;;19.97;14.27;;;;;;;-143.84;94.97;43849.66;5031893;28;20512;-77
2022/01/02 03:09:11;;;;;;;16.90;12.57;;;;;;;-143.84;95.25;43821.09;5031959;28;20494;-76
2022/01/02 03:11:41;;;;;;;21.37;14.20;;;;;;;-143.84;95.24;43838.25;5030997;28;20449;-74
2022/01/02 03:14:10;;;;;;;21.47;15.00;;;;;;;-143.84;95.16;43826.81;5030550;28;20493;-74
2022/01/02 03:16:37;;;;;;;26.80;14.60;;;;;;;-143.84;95.19;43811.59;5030609;28;20915;-74
2022/01/02 03:19:05;;;;;;;19.20;14.40;;;;;;;-143.84;95.71;43855.38;5029457;28;20446;-74
2022/01/02 03:21:33;;;;;;;20.87;14.93;;;;;;;-143.84;95.65;43859.19;5030758;28;20445;-74
2022/01/02 03:24:00;;;;;;;19.93;14.43;;;;;;;-143.84;95.78;43861.06;5030283;28;20482;-74
2022/01/02 03:26:28;;;;;;;16.70;14.23;;;;;;;-143.84;95.77;43832.53;5030515;28;20512;-74
2022/01/02 03:28:56;;;;;;;20.17;14.40;;;;;;;-143.84;95.85;43840.13;5030401;28;20943;-74
2022/01/02 03:31:23;;;;;;;21.53;14.77;;;;;;;-143.84;95.89;43862.97;5030406;28;20444;-74
2022/01/02 03:33:50;;;;;;;18.87;15.40;;;;;;;-143.84;95.86;43853.47;5030492;28;20470;-74
2022/01/02 03:36:18;;;;;;;18.67;14.90;;;;;;;-143.84;95.66;43868.69;5030218;28;20454;-74
2022/01/02 03:38:46;;;;;;;19.10;14.40;;;;;;;-143.84;95.69;43868.69;5030055;28;20489;-74
2022/01/02 03:41:13;;;;;;;22.70;14.80;;;;;;;-143.84;95.44;43851.56;5030389;28;20438;-74
2022/01/02 03:43:41;;;;;;;21.83;14.77;;;;;;;-143.84;95.20;43845.84;5030194;28;20997;-74
2022/01/02 03:46:09;;;;;;;21.33;13.70;;;;;;;-143.84;95.58;43845.84;5030151;28;20513;-74
2022/01/02 03:48:36;;;;;;;17.90;13.73;;;;;;;-143.84;95.47;43836.34;5030280;28;20515;-74
2022/01/02 03:51:03;;;;;;;21.80;14.77;;;;;;;-143.84;95.22;43859.19;5029817;28;20445;-74
2022/01/02 03:53:30;;;;;;;21.03;14.30;;;;;;;-143.84;95.39;43828.72;5029651;28;20798;-74
2022/01/02 03:55:58;;;;;;;25.77;14.17;;;;;;;-143.84;95.36;43838.25;5029758;28;20437;-74
2022/01/02 03:58:25;;;;;;;18.47;14.07;;;;;;;-143.84;95.19;43813.50;5029829;28;20866;-74
2022/01/02 04:00:53;;;;;;;24.03;16.60;;;;;;;-143.84;95.23;43849.66;5029906;28;20528;-74
2022/01/02 04:03:20;;;;;;;24.13;16.00;;;;;;;-143.84;94.85;43824.91;5029575;28;20860;-74
2022/01/02 04:05:48;;;;;;;24.80;14.00;;;;;;;-143.84;95.02;43834.44;5029731;28;21013;-74
2022/01/02 04:08:15;;;;;;;20.17;15.43;;;;;;;-143.84;94.73;43824.91;5029550;28;20513;-74
2022/01/02 04:10:42;;;;;;;20.00;13.70;;;;;;;-143.84;94.93;43823.00;5029579;28;20924;-74
2022/01/02 04:13:09;;;;;;;18.43;14.10;;;;;;;-143.84;94.76;43817.31;5029690;28;20449;-74
2022/01/02 04:15:36;;;;;;;23.77;13.27;;;;;;;-143.84;94.59;43796.34;5022407;28;20481;-74
2022/01/02 04:18:05;;;;;;;19.10;14.20;;;;;;;-143.84;94.54;43826.81;5029773;28;20457;-74
2022/01/02 04:20:33;;;;;;;20.57;14.57;;;;;;;-143.84;94.68;43824.91;5029411;28;20454;-74
2022/01/02 04:23:00;;;;;;;23.40;14.03;;;;;;;-143.84;94.72;43838.25;5029926;28;20449;-73
2022/01/02 04:25:27;;;;;;;19.90;14.10;;;;;;;-143.84;94.52;43813.50;5030878;28;20490;-73
2022/01/02 04:27:54;;;;;;;19.63;13.93;;;;;;;-143.84;94.55;43864.88;5031279;28;21088;-73
2022/01/02 04:30:21;;;;;;;15.63;12.60;;;;;;;-143.84;94.43;43815.41;5030737;28;20447;-73
2022/01/02 04:32:51;;;;;;;21.40;14.50;;;;;;;-143.84;94.51;43826.81;5030803;28;20431;-73
2022/01/02 04:35:20;;;;;;;19.20;14.40;;;;;;;-143.84;94.48;43807.78;5031442;28;20441;-73
2022/01/02 04:37:47;;;;;;;20.20;14.10;;;;;;;-143.84;94.49;43864.88;5030717;28;20955;-73
2022/01/02 04:40:15;;;;;;;18.40;13.97;;;;;;;-143.84;94.33;43807.78;5030813;28;20449;-73
2022/01/02 04:42:42;;;;;;;18.97;14.23;;;;;;;-143.84;94.68;43851.56;5030958;28;20442;-73
2022/01/02 04:45:10;;;;;;;20.43;14.77;;;;;;;-143.84;94.62;43809.69;5030989;28;20505;-73
2022/01/02 04:47:37;;;;;;;21.97;14.90;;;;;;;-143.84;94.50;43836.34;5030929;28;20492;-73
2022/01/02 04:50:07;;;;;;;17.50;13.47;;;;;;;-143.84;94.50;43821.09;5031143;28;20438;-73
2022/01/02 04:52:36;;;;;;;19.60;12.97;;;;;;;-143.84;94.74;43845.84;5030552;28;20451;-73
2022/01/02 04:55:04;;;;;;;17.97;13.00;;;;;;;-143.84;94.42;43832.53;5030642;28;20471;-73
2022/01/02 04:57:31;;;;;;;18.37;13.57;;;;;;;-143.84;94.17;43813.50;5029910;28;21251;-75
2022/01/02 04:59:58;;;;;;;21.27;15.10;;;;;;;-143.84;94.38;43830.63;5029020;28;20446;-75
2022/01/02 05:02:25;;;;;;;23.93;15.47;;;;;;;-143.84;94.32;43813.50;5028935;28;20448;-74
2022/01/02 05:04:53;;;;;;;23.80;15.47;;;;;;;-143.84;94.46;43809.69;5028932;28;20492;-74
2022/01/02 05:07:20;;;;;;;19.23;14.60;;;;;;;-143.84;94.62;43847.75;5028854;28;20449;-74
2022/01/02 05:09:49;;;;;;;21.83;15.37;;;;;;;-143.84;94.39;43834.44;5028948;28;20503;-74
2022/01/02 05:12:16;;;;;;;18.70;14.77;;;;;;;-143.84;94.39;43826.81;5030516;28;20446;-72
2022/01/02 05:14:43;;;;;;;21.70;14.30;;;;;;;-143.84;94.04;43861.06;5030064;28;20486;-72
2022/01/02 05:17:10;;;;;;;24.77;15.13;;;;;;;-143.84;94.34;43853.47;5030840;28;20437;-73
2022/01/02 05:19:37;;;;;;;17.40;14.30;;;;;;;-143.84;94.13;43838.25;5029854;28;20797;-73
2022/01/02 05:22:05;;;;;;;20.10;14.60;;;;;;;-143.84;93.88;43834.44;5029757;28;20867;-73
2022/01/02 05:24:32;;;;;;;17.13;13.27;;;;;;;-143.84;93.77;43868.69;5030328;28;20489;-72
2022/01/02 05:27:00;;;;;;;19.07;14.53;;;;;;;-143.84;94.11;43857.28;5029953;28;20438;-73
2022/01/02 05:29:28;;;;;;;23.20;14.43;;;;;;;-143.84;94.00;43830.63;5030969;28;21013;-73
2022/01/02 05:31:55;;;;;;;22.90;15.63;;;;;;;-143.84;94.05;43840.13;5030550;28;20947;-73
2022/01/02 05:34:23;;;;;;;18.60;13.57;;;;;;;-143.84;94.05;43845.84;5030573;28;20446;-73
2022/01/02 05:36:50;;;;;;;20.00;14.60;;;;;;;-143.84;94.34;43838.25;5030554;28;20448;-73
2022/01/02 05:39:19;;;;;;;21.60;14.30;;;;;;;-143.84;95.02;43832.53;5030831;28;20444;-73
2022/01/02 05:41:47;;;;;;;15.47;12.90;;;;;;;-143.84;95.08;43830.63;5031107;28;20516;-73
2022/01/02 05:44:16;;;;;;;19.80;14.50;;;;;;;-143.84;95.01;43824.91;5033919;28;20480;-73
2022/01/02 05:46:44;;;;;;;19.47;13.87;;;;;;;-143.84;95.11;43826.81;5034361;28;20445;-73
2022/01/02 05:49:12;;;;;;;21.93;14.90;;;;;;;-143.84;95.43;43859.19;5034599;28;20842;-73
2022/01/02 05:51:39;;;;;;;19.87;14.60;;;;;;;-143.84;95.25;43834.44;5034127;28;20454;-73
2022/01/02 05:54:06;;;;;;;19.60;14.80;;;;;;;-143.84;95.41;43809.69;5033779;28;20494;-73
2022/01/02 05:56:34;;;;;;;20.03;15.10;;;;;;;-143.84;95.90;43849.66;5034205;28;20506;-73
2022/01/02 05:59:01;;;;;;;16.93;13.90;;;;;;;-143.84;95.78;43853.47;5034161;28;20950;-73
2022/01/02 06:01:30;;;;;;;22.93;16.70;;;;;;;-143.84;95.77;43862.97;5033497;28;20507;-75
2022/01/02 06:03:57;;;;;;;21.80;15.80;;;;;;;-143.84;95.64;43851.56;5034262;28;20498;-74
2022/01/02 06:06:24;;;;;;;24.83;15.57;;;;;;;-143.84;95.77;43882.00;5033768;28;20467;-73
2022/01/02 06:08:51;;;;;;;21.87;15.57;;;;;;;-143.84;96.03;43872.50;5034300;28;20510;-73
2022/01/02 06:11:19;;;;;;;19.80;15.20;;;;;;;-143.84;95.69;43836.34;5033978;28;21188;-73
2022/01/02 06:13:46;;;;;;;20.87;15.73;;;;;;;-143.84;95.73;43836.34;5032876;28;20449;-73
2022/01/02 06:16:14;;;;;;;21.07;15.17;;;;;;;-143.84;95.57;43861.06;5033719;28;21010;-73
2022/01/02 06:18:42;;;;;;;21.17;15.50;;;;;;;-143.84;95.87;43861.06;5033534;28;20437;-73
2022/01/02 06:21:10;;;;;;;23.93;14.33;;;;;;;-143.84;96.01;43838.25;5033862;28;20486;-73
2022/01/02 06:23:37;;;;;;;28.70;15.90;;;;;;;-143.84;95.82;43849.66;5033126;28;20445;-73
2022/01/02 06:26:04;;;;;;;23.93;14.53;;;;;;;-143.84;95.60;43840.13;5033252;28;20485;-73
2022/01/02 06:28:31;;;;;;;19.37;13.93;;;;;;;-143.84;95.49;43851.56;5033591;28;21182;-73
2022/01/02 06:31:00;;;;;;;19.37;13.97;;;;;;;-143.84;95.59;43845.84;5033678;28;20458;-73
2022/01/02 06:33:27;;;;;;;17.77;13.57;;;;;;;-143.84;95.57;43847.75;5032972;28;20449;-73
2022/01/02 06:35:55;;;;;;;15.40;13.20;;;;;;;-143.84;95.19;43826.81;5032984;28;20460;-73
2022/01/02 06:38:24;;;;;;;14.33;12.40;;;;;;;-143.84;95.22;43843.94;5033503;28;20445;-74
2022/01/02 06:40:51;;;;;;;17.63;13.70;;;;;;;-143.84;94.93;43830.63;5033445;28;20433;-73
2022/01/02 06:43:19;;;;;;;16.10;12.97;;;;;;;-143.84;94.57;43840.13;5032907;28;20928;-73
2022/01/02 06:45:46;;;;;;;19.10;14.33;;;;;;;-143.84;94.48;43834.44;5032565;28;20474;-75
2022/01/02 06:48:13;;;;;;;17.43;13.50;;;;;;;-143.84;94.88;43849.66;5031193;28;20446;-75
2022/01/02 06:50:41;;;;;;;16.13;12.47;;;;;;;-143.84;94.68;43824.91;5031335;28;20993;-75
2022/01/02 06:53:09;;;;;;;16.10;12.03;;;;;;;-143.84;94.07;43800.16;5030759;28;20445;-75
2022/01/02 06:55:37;;;;;;;21.80;14.03;;;;;;;-143.84;93.78;43868.69;5031174;28;20465;-75
2022/01/02 06:58:06;;;;;;;15.27;13.17;;;;;;;-143.84;93.79;43872.50;5030851;28;20441;-75
2022/01/02 07:00:34;;;;;;;16.37;13.27;;;;;;;-143.84;93.48;43885.81;5031119;28;20555;-74
2022/01/02 07:03:01;;;;;;;19.50;12.70;;;;;;;-143.84;92.93;43935.31;5030823;28;20445;-75
2022/01/02 07:05:29;;;;;;;15.50;11.13;;;;;;;-143.84;92.22;44064.75;5030792;28;20576;-75
2022/01/02 07:07:56;;;;;;;18.20;11.70;;;;;;;-143.84;90.98;44302.72;5030729;28;20510;-74
2022/01/02 07:10:24;;;;;;;17.00;10.60;;;;;;;-143.84;89.70;44685.38;5030782;28;20448;-75
2022/01/02 07:12:52;;;;;;;17.90;10.90;;;;;;;-143.84;89.42;44698.72;5030430;28;20448;-75
2022/01/02 07:15:20;;;;;;;11.90;9.27;;;;;;;-143.84;88.86;44799.63;5030042;28;20482;-75
2022/01/02 07:17:47;;;;;;;13.47;10.30;;;;;;;-143.84;88.14;44860.56;5030771;28;20458;-75
2022/01/02 07:20:14;;;;;;;13.47;8.23;;;;;;;-143.84;87.80;44950.06;5030414;28;20451;-75
2022/01/02 07:22:42;;;;;;;9.87;8.43;;;;;;;-143.84;87.10;45010.97;5030476;28;20939;-75
2022/01/02 07:25:10;;;;;;;12.27;8.67;;;;;;;-143.84;86.49;45018.59;5030304;28;20485;-75
2022/01/02 07:27:39;;;;;;;12.70;8.47;;;;;;;-143.84;85.95;45033.84;5030224;28;20854;-75
2022/01/02 07:30:07;;;;;;;9.53;7.80;;;;;;;-143.84;85.42;45077.63;5030306;28;21111;-75
2022/01/02 07:32:35;;;;;;;9.13;7.83;;;;;;;-143.84;84.57;45098.56;5030294;28;20446;-75
2022/01/02 07:35:03;;;;;;;9.10;8.10;;;;;;;-143.84;84.45;45106.19;5030360;28;20446;-75
2022/01/02 07:37:31;;;;;;;9.90;8.17;;;;;;;-143.84;84.32;45071.91;5030171;28;20443;-75
2022/01/02 07:39:58;;;;;;;12.70;7.37;;;;;;;-143.84;82.07;45142.38;5030243;28;20446;-75
2022/01/02 07:42:25;;;;;;;5.70;5.20;;;;;;;-143.84;80.25;45130.94;5030098;28;20448;-75
2022/01/02 07:44:54;;;;;;;4.33;4.00;;;;;;;-143.84;77.57;45142.38;5029805;28;20478;-75
2022/01/02 07:47:21;;;;;;;5.27;4.27;;;;;;;-143.84;77.09;45161.41;5030011;28;20449;-75
2022/01/02 07:49:48;;;;;;;6.73;4.10;;;;;;;-143.84;75.98;45170.94;5029831;28;20942;-75
2022/01/02 07:52:16;;;;;;;3.37;3.07;;;;;;;-143.84;75.13;45151.91;5030004;28;20453;-75
2022/01/02 07:54:43;;;;;;;3.43;3.00;;;;;;;-143.84;74.70;45167.13;5029647;28;20451;-75
2022/01/02 07:57:10;;;;;;;2.77;2.57;;;;;;;-143.84;72.54;45159.50;5029785;28;20452;-75
2022/01/02 07:59:37;;;;;;;4.33;2.60;;;;;;;-143.84;71.39;45169.03;5029694;28;20442;-75
2022/01/02 08:02:06;;;;;;;2.77;2.40;;;;;;;-143.84;70.23;45172.84;5029571;28;20452;-74
2022/01/02 08:04:33;;;;;;;2.80;2.60;;;;;;;-143.84;69.40;45178.56;5029018;28;20454;-75
2022/01/02 08:07:00;;;;;;;2.90;2.23;;;;;;;-143.84;67.18;45167.13;5029860;28;20878;-74
2022/01/02 08:09:27;;;;;;;1.80;1.70;;;;;;;-143.84;65.77;45163.31;5029680;28;20442;-75
2022/01/02 08:11:54;;;;;;;2.30;2.10;;;;;;;-143.84;65.39;45159.50;5029795;28;20520;-75
2022/01/02 08:14:22;;;;;;;2.90;2.00;;;;;;;-143.84;64.02;45144.28;5029500;28;20483;-75
2022/01/02 08:16:49;;;;;;;1.97;1.80;;;;;;;-143.84;62.03;45163.31;5029443;28;20881;-75
2022/01/02 08:19:18;;;;;;;2.73;1.90;;;;;;;-143.84;61.08;45132.84;5029116;28;20513;-74
2022/01/02 08:21:45;;;;;;;2.00;1.90;;;;;;;-143.84;61.43;45155.69;5029672;28;20515;-75
2022/01/02 08:24:12;;;;;;;2.00;1.90;;;;;;;-143.84;62.56;45174.75;5030055;28;20487;-77
2022/01/02 08:26:40;;;;;;;2.10;1.90;;;;;;;-143.84;60.21;45161.41;5030527;28;20546;-77
2022/01/02 08:29:07;;;;;;;2.10;1.90;;;;;;;-143.84;59.86;45157.59;5030502;28;20500;-77
2022/01/02 08:31:35;;;;;;;1.97;1.80;;;;;;;-143.84;59.57;45146.19;5030866;28;20436;-77
2022/01/02 08:34:03;;;;;;;2.77;2.10;;;;;;;-143.84;58.33;45150.00;5030651;28;20936;-77
2022/01/02 08:36:31;;;;;;;2.80;2.07;;;;;;;-143.84;56.37;45205.22;5030710;28;20488;-77
2022/01/02 08:38:58;;;;;;;2.33;2.20;;;;;;;-143.84;57.88;45169.03;5030670;28;20804;-77
2022/01/02 08:41:26;;;;;;;4.40;2.27;;;;;;;-143.84;56.48;45142.38;5030586;28;20843;-77
2022/01/02 08:43:53;;;;;;;2.70;2.37;;;;;;;-143.84;55.65;45138.56;5030914;28;20450;-77
2022/01/02 08:46:20;;;;;;;3.50;2.83;;;;;;;-143.84;54.58;45138.56;5030439;28;20527;-77
2022/01/02 08:48:47;;;;;;;2.37;2.20;;;;;;;-143.84;53.74;45142.38;5030481;28;20447;-77
2022/01/02 08:51:14;;;;;;;3.70;2.60;;;;;;;-143.84;55.02;45134.75;5030964;28;20915;-77
2022/01/02 08:53:43;;;;;;;5.93;2.63;;;;;;;-143.84;55.17;45144.28;5030223;28;20529;-77
2022/01/02 08:56:12;;;;;;;2.23;1.93;;;;;;;-143.84;54.04;45155.69;5029562;28;20824;-77
2022/01/02 08:58:39;;;;;;;2.10;1.90;;;;;;;-143.84;55.13;45163.31;5030468;28;20492;-74
2022/01/02 09:01:06;;;;;;;1.87;1.77;;;;;;;-143.84;53.46;45142.38;5030659;28;20441;-74
2022/01/02 09:03:34;;;;;;;2.10;2.00;;;;;;;-143.84;54.94;45148.09;5030388;28;20446;-74
2022/01/02 09:06:02;;;;;;;2.03;1.93;;;;;;;-143.84;55.54;45148.09;5030330;28;20550;-74
2022/01/02 09:08:29;;;;;;;2.03;1.90;;;;;;;-143.84;56.05;45170.94;5030428;28;20431;-74
2022/01/02 09:10:58;;;;;;;2.90;2.40;;;;;;;-143.84;55.80;45155.69;5030406;28;20436;-74
2022/01/02 09:13:26;;;;;;;3.67;2.20;;;;;;;-143.84;56.59;45138.56;5030558;28;20823;-74
2022/01/02 09:15:54;;;;;;;4.03;2.57;;;;;;;-143.84;57.06;45155.69;5021776;28;20489;-74
2022/01/02 09:18:21;;;;;;;4.17;3.77;;;;;;;-143.84;57.28;45157.59;5033058;28;20531;-75
2022/01/02 09:20:49;;;;;;;3.73;3.30;;;;;;;-143.84;57.82;45170.94;5032927;28;20448;-76
2022/01/02 09:23:16;;;;;;;3.07;2.77;;;;;;;-143.84;59.04;45191.88;5033192;28;20451;-76
2022/01/02 09:25:43;;;;;;;5.43;3.47;;;;;;;-143.84;58.26;45150.00;5033511;28;20467;-76
2022/01/02 09:28:12;;;;;;;4.03;2.80;;;;;;;-143.84;58.67;45163.31;5032938;28;20495;-76
2022/01/02 09:30:39;;;;;;;5.00;3.23;;;;;;;-143.84;57.73;45165.22;5033050;28;20975;-76
2022/01/02 09:33:08;;;;;;;4.50;3.10;;;;;;;-143.84;58.98;45134.75;5033174;28;20446;-76
2022/01/02 09:35:38;;;;;;;3.13;2.83;;;;;;;-143.84;59.83;45155.69;5033178;28;20461;-76
2022/01/02 09:38:05;;;;;;;4.63;2.90;;;;;;;-143.84;60.05;45155.69;5033335;28;20451;-76
2022/01/02 09:40:33;;;;;;;2.90;2.60;;;;;;;-143.84;60.52;45144.28;5033180;28;20449;-76
2022/01/02 09:43:02;;;;;;;5.53;2.47;;;;;;;-143.84;61.09;45151.91;5033577;28;20443;-77
2022/01/02 09:45:33;;;;;;;2.87;2.67;;;;;;;-143.84;59.56;45148.09;5034061;28;21125;-77
2022/01/02 09:48:02;;;;;;;3.60;3.00;;;;;;;-143.84;59.72;45148.09;5033599;28;20472;-77
2022/01/02 09:50:31;;;;;;;3.53;3.23;;;;;;;-143.84;59.16;45144.28;5033864;28;20443;-77
2022/01/02 09:52:58;;;;;;;4.03;2.83;;;;;;;-143.84;59.66;45153.81;5033842;28;20524;-74
2022/01/02 09:55:25;;;;;;;3.03;2.60;;;;;;;-143.84;58.64;45140.47;5033003;28;20450;-74
2022/01/02 09:57:54;;;;;;;4.33;2.77;;;;;;;-143.84;58.42;45176.66;5032884;28;20443;-76
2022/01/02 10:00:22;;;;;;;3.50;2.87;;;;;;;-143.84;58.25;45142.38;5014815;28;20452;-74
2022/01/02 10:02:58;;;;;;;2.63;2.43;;;;;;;-143.84;56.94;45136.66;5032165;28;20451;-76
2022/01/02 10:05:26;;;;;;;2.40;2.03;;;;;;;-143.84;55.63;45140.47;5032229;28;20443;-76
2022/01/02 10:07:54;;;;;;;2.23;1.87;;;;;;;-143.84;56.36;45119.53;5032151;28;20438;-76
2022/01/02 10:10:22;;;;;;;2.37;1.90;;;;;;;-143.84;57.90;45170.94;5032367;28;20457;-76
2022/01/02 10:12:50;;;;;;;2.23;1.80;;;;;;;-143.84;58.23;45148.09;5031308;28;20460;-76
2022/01/02 10:15:19;;;;;;;8.40;2.33;;;;;;;-143.84;59.04;45163.31;5031905;28;20865;-76
2022/01/02 10:18:09;;;;;;;2.67;2.00;;;;;;;-143.84;58.05;45142.38;5032239;28;20454;-76
2022/01/02 10:20:38;;;;;;;2.63;2.43;;;;;;;-143.84;57.05;45134.75;5031979;28;20438;-75
2022/01/02 10:23:16;;;;;;;2.73;2.30;;;;;;;-143.84;57.42;45127.13;5031504;28;20438;-75
2022/01/02 10:25:55;;;;;;;2.50;2.00;;;;;;;-143.84;56.05;45159.50;5031608;28;21028;-74
2022/01/02 10:28:34;;;;;;;4.10;2.60;;;;;;;-143.84;58.22;45138.56;5031730;28;20869;-74
2022/01/02 10:31:06;;;;;;;2.80;1.93;;;;;;;-143.84;57.28;45157.59;5033032;28;20437;-74
2022/01/02 10:33:49;;;;;;;4.80;1.77;;;;;;;-143.84;59.11;45153.81;5032696;28;20435;-74
2022/01/02 10:36:26;;;;;;;2.00;1.80;;;;;;;-143.84;58.21;45130.94;5032769;28;20578;-74
2022/01/02 10:39:01;;;;;;;8.33;2.37;;;;;;;-143.84;58.76;45159.50;5032898;28;20495;-74
2022/01/02 10:41:33;;;;;;;4.87;3.20;;;;;;;-143.84;57.28;45136.66;5032595;28;20448;-73
2022/01/02 10:44:24;;;;;;;4.27;3.10;;;;;;;-143.84;58.47;45159.50;5032444;28;20549;-74
2022/01/02 10:47:14;;;;;;;2.30;1.90;;;;;;;-143.84;56.64;45121.44;5032258;28;20587;-74
2022/01/02 10:49:50;;;;;;;2.70;2.50;;;;;;;-143.84;55.02;45129.03;5032553;28;20450;-74
2022/01/02 10:52:19;;;;;;;2.40;2.20;;;;;;;-143.84;55.92;45146.19;5032283;28;20880;-74
2022/01/02 10:54:46;;;;;;;1.73;1.60;;;;;;;-143.84;57.91;45121.44;5032455;28;20442;-74
2022/01/02 10:57:14;;;;;;;2.30;2.10;;;;;;;-143.84;56.71;45138.56;5032083;28;20835;-75
2022/01/02 10:59:43;;;;;;;2.00;1.90;;;;;;;-143.84;55.95;45144.28;5030839;28;20450;-75
2022/01/02 11:02:12;;;;;;;2.00;1.90;;;;;;;-143.84;55.33;45115.72;5031095;28;20443;-75
2022/01/02 11:04:47;;;;;;;1.70;1.60;;;;;;;-143.84;54.51;45136.66;5031067;28;20481;-75
2022/01/02 11:07:25;;;;;;;2.33;2.00;;;;;;;-143.84;54.70;45123.34;5030843;28;20481;-75
2022/01/02 11:09:54;;;;;;;1.80;1.70;;;;;;;-143.84;54.46;45157.59;5031094;28;20442;-75
2022/01/02 11:12:23;;;;;;;2.20;2.00;;;;;;;-143.84;55.49;45136.66;5031078;28;20453;-75
2022/01/02 11:14:52;;;;;;;2.83;2.17;;;;;;;-143.84;55.74;45125.22;5030971;28;20490;-75
2022/01/02 11:17:19;;;;;;;1.97;1.77;;;;;;;-143.84;55.05;45142.38;5030877;28;20446;-74